Trans Sea — 9HA2564 — position and weather

sailwx.info

Track history (hours):
 
Tides and Currents Weather Stations Pressure Air Temp Water Temp Dewpoint Dewpoint Depression Visibility Wind Speed Wind Dir Waves Ship Positions

Trans Sea

Last reported at 2014-Dec-19 18:31 UTC. Time now 2014-Dec-19 21:42 UTC.
Position N 37°02' E 013°37'.

Length 107 m; draft 6.2 m.

Type: Ship (hazmat cat B). MMSI: 248887000.

Date/timePositionNaut miles runAvg speedWind from/ knotsBaromVisibWave heightAir tempDewpointWater temp
2014-Dec-19 18:31N 37°02' E 013°37'1212.9
2014-Dec-19 17:34N 36°56' E 013°50'1413.3
2014-Dec-19 16:31N 36°50' E 014°06'1313.4
2014-Dec-19 15:33N 36°43' E 014°20'44312.6
2014-Dec-18 04:33N 36°50' E 023°32'3013.2
2014-Dec-18 02:17N 37°16' E 023°51'1013.1
2014-Dec-18 01:33N 37°24' E 023°58'1313.3
2014-Dec-18 00:33N 37°35' E 024°07'1313.4
2014-Dec-17 23:33N 37°44' E 024°19'1313.2
2014-Dec-17 22:33N 37°53' E 024°32'1913.1
2014-Dec-17 21:04N 38°10' E 024°44'99 2.2
2014-Dec-16 00:33N 39°40' E 025°38'1312.1
2014-Dec-15 23:28N 39°52' E 025°46'6312.8
2014-Dec-15 18:33N 40°29' E 026°53'  
2014-Dec-11 06:18N 37°53' E 024°31'7412.2
2014-Dec-11 00:13N 36°52' E 023°37'4211.0
2014-Dec-10 20:21N 36°25' E 022°57'  
Track history (hours):
 
Tides and Currents Weather Stations Pressure Air Temp Water Temp Dewpoint Dewpoint Depression Visibility Wind Speed Wind Dir Waves Ship Positions

Trans Sea

Last reported at 2014-Dec-19 18:31 UTC. Time now 2014-Dec-19 21:42 UTC.
Position N 37°02' E 013°37'.

Length 107 m; draft 6.2 m.

Type: Ship (hazmat cat B). MMSI: 248887000.

Date/timePositionNaut miles runAvg speedWind from/ knotsBaromVisibWave heightAir tempDewpointWater temp
2014-Dec-19 18:31N 37°02' E 013°37'1212.9
2014-Dec-19 17:34N 36°56' E 013°50'1413.3
2014-Dec-19 16:31N 36°50' E 014°06'1313.4
2014-Dec-19 15:33N 36°43' E 014°20'44312.6
2014-Dec-18 04:33N 36°50' E 023°32'3013.2
2014-Dec-18 02:17N 37°16' E 023°51'1013.1
2014-Dec-18 01:33N 37°24' E 023°58'1313.3
2014-Dec-18 00:33N 37°35' E 024°07'1313.4
2014-Dec-17 23:33N 37°44' E 024°19'1313.2
2014-Dec-17 22:33N 37°53' E 024°32'1913.1
2014-Dec-17 21:04N 38°10' E 024°44'99 2.2
2014-Dec-16 00:33N 39°40' E 025°38'1312.1
2014-Dec-15 23:28N 39°52' E 025°46'6312.8
2014-Dec-15 18:33N 40°29' E 026°53'  
2014-Dec-11 06:18N 37°53' E 024°31'7412.2
2014-Dec-11 00:13N 36°52' E 023°37'4211.0
2014-Dec-10 20:21N 36°25' E 022°57'  

Dump ship's entire track history